Time;durP1;ratioP1;P1;durP2;ratioP2;P2;SDS_P1;SDS_P2;PMS_P1;PMS_P2;Temp;Humidity;BMP_temperature;BMP_pressure;BME280_temperature;BME280_humidity;BME280_pressure;Samples;Min_cycle;Max_cycle;Signal;HPM_P1;HPM_P2
2023/08/10 00:00:55;;;;;;;2.97;2.50;;;;;;;15.25;100.00;98471.91;5074866;28;20207;-76
2023/08/10 00:03:22;;;;;;;2.83;2.63;;;;;;;15.25;100.00;98474.59;5075475;28;20208;-76
2023/08/10 00:05:48;;;;;;;3.77;2.87;;;;;;;15.21;100.00;98473.47;5074927;28;20200;-76
2023/08/10 00:08:15;;;;;;;2.73;2.53;;;;;;;15.21;100.00;98478.81;5074679;28;20292;-76
2023/08/10 00:10:41;;;;;;;3.97;2.73;;;;;;;15.10;100.00;98476.97;5074752;28;20204;-76
2023/08/10 00:13:08;;;;;;;3.10;2.70;;;;;;;15.09;100.00;98478.03;5074672;28;20550;-76
2023/08/10 00:15:34;;;;;;;2.93;2.60;;;;;;;15.04;100.00;98477.94;5074589;28;20201;-76
2023/08/10 00:18:01;;;;;;;3.07;2.57;;;;;;;14.98;100.00;98473.53;5073849;28;20234;-76
2023/08/10 00:20:27;;;;;;;3.27;2.50;;;;;;;14.93;100.00;98475.28;5074440;28;20221;-76
2023/08/10 00:22:54;;;;;;;2.60;2.40;;;;;;;14.84;100.00;98480.16;5074546;28;20219;-76
2023/08/10 00:25:21;;;;;;;4.63;2.60;;;;;;;14.79;100.00;98474.72;5074479;28;20252;-76
2023/08/10 00:27:47;;;;;;;3.30;2.60;;;;;;;14.72;100.00;98473.22;5074117;28;20285;-76
2023/08/10 00:30:14;;;;;;;4.03;2.50;;;;;;;14.73;100.00;98464.94;5074464;28;20228;-76
2023/08/10 00:32:41;;;;;;;2.70;2.50;;;;;;;14.66;100.00;98474.97;5074839;28;20209;-76
2023/08/10 00:35:08;;;;;;;3.00;2.70;;;;;;;14.56;100.00;98458.69;5074399;28;20563;-76
2023/08/10 00:37:34;;;;;;;2.83;2.53;;;;;;;14.58;100.00;98466.50;5074167;28;20235;-76
2023/08/10 00:40:02;;;;;;;3.17;2.33;;;;;;;14.48;100.00;98458.25;5074162;28;20311;-76
2023/08/10 00:42:28;;;;;;;2.50;2.30;;;;;;;14.52;100.00;98462.09;5073878;28;20215;-76
2023/08/10 00:44:55;;;;;;;4.00;2.50;;;;;;;14.42;100.00;98462.66;5074240;28;20231;-76
2023/08/10 00:47:21;;;;;;;3.77;2.63;;;;;;;14.46;100.00;98468.34;5073839;28;20207;-76
2023/08/10 00:49:48;;;;;;;2.77;2.33;;;;;;;14.43;100.00;98464.28;5073991;28;20225;-76
2023/08/10 00:52:15;;;;;;;2.87;2.37;;;;;;;14.43;100.00;98471.50;5074022;28;20567;-76
2023/08/10 00:54:41;;;;;;;2.93;2.70;;;;;;;14.36;100.00;98474.28;5074079;28;20209;-76
2023/08/10 00:57:08;;;;;;;2.53;2.30;;;;;;;14.27;100.00;98475.69;5073861;28;20205;-76
2023/08/10 00:59:34;;;;;;;3.23;2.47;;;;;;;14.23;100.00;98469.16;5073541;28;20224;-76
2023/08/10 01:02:00;;;;;;;3.97;2.47;;;;;;;14.10;100.00;98477.38;5073979;28;20201;-76
2023/08/10 01:04:27;;;;;;;2.60;2.40;;;;;;;14.16;100.00;98473.78;5073965;28;20205;-76
2023/08/10 01:07:32;;;;;;;2.50;2.23;;;;;;;14.17;100.00;98474.59;5073882;28;20208;-76
2023/08/10 01:10:19;;;;;;;2.60;2.40;;;;;;;14.10;100.00;98479.22;5073764;28;20228;-76
2023/08/10 01:12:50;;;;;;;3.40;2.40;;;;;;;14.08;100.00;98468.78;5073891;28;20199;-76
2023/08/10 01:15:23;;;;;;;2.80;2.60;;;;;;;14.01;100.00;98467.25;5074212;28;20201;-76
2023/08/10 01:17:57;;;;;;;2.67;2.47;;;;;;;13.93;100.00;98476.41;5073764;28;20220;-76
2023/08/10 01:20:26;;;;;;;2.50;2.30;;;;;;;13.96;100.00;98475.13;5073635;28;20231;-76
2023/08/10 01:23:13;;;;;;;2.67;2.47;;;;;;;13.87;100.00;98476.50;5073709;28;20571;-76
2023/08/10 01:25:43;;;;;;;2.77;2.57;;;;;;;13.77;100.00;98477.09;5074594;28;20188;-76
2023/08/10 01:28:12;;;;;;;3.47;2.20;;;;;;;13.74;100.00;98479.41;5072354;28;20204;-76
2023/08/10 01:30:39;;;;;;;2.87;2.60;;;;;;;13.74;100.00;98474.88;5076333;28;20547;-76
2023/08/10 01:33:08;;;;;;;3.20;2.90;;;;;;;13.70;100.00;98476.38;5077884;28;20201;-76
2023/08/10 01:35:35;;;;;;;3.40;3.10;;;;;;;13.75;100.00;98473.03;5077719;28;20204;-76
2023/08/10 01:38:02;;;;;;;3.23;3.03;;;;;;;13.73;100.00;98475.91;5077534;28;20234;-76
2023/08/10 01:40:29;;;;;;;3.33;3.03;;;;;;;13.65;100.00;98476.25;5077811;28;20258;-76
2023/08/10 01:42:55;;;;;;;3.03;2.73;;;;;;;13.55;100.00;98477.81;5077712;28;20204;-76
2023/08/10 01:45:22;;;;;;;2.60;2.40;;;;;;;13.60;100.00;98468.09;5077656;28;20201;-76
2023/08/10 01:48:11;;;;;;;3.20;2.90;;;;;;;13.61;100.00;98480.41;5077468;28;20204;-76
2023/08/10 01:50:41;;;;;;;3.33;2.80;;;;;;;13.52;100.00;98472.97;5076411;28;20193;-76
2023/08/10 01:53:13;;;;;;;3.50;3.20;;;;;;;13.55;100.00;98478.66;5077426;28;20204;-76
2023/08/10 01:55:40;;;;;;;3.50;3.20;;;;;;;13.72;100.00;98481.47;5076004;28;20558;-76
2023/08/10 01:58:07;;;;;;;3.23;3.00;;;;;;;13.69;100.00;98484.59;5077247;28;20235;-76
2023/08/10 02:00:37;;;;;;;3.50;2.60;;;;;;;13.64;100.00;98477.28;5077420;28;20214;-76
2023/08/10 02:03:07;;;;;;;3.10;2.90;;;;;;;13.61;100.00;98483.06;5077419;28;20204;-76
2023/08/10 02:05:34;;;;;;;3.17;2.87;;;;;;;13.60;100.00;98481.44;5077039;28;20690;-76
2023/08/10 02:08:01;;;;;;;3.73;2.93;;;;;;;13.54;100.00;98479.69;5077204;28;20203;-76
2023/08/10 02:10:27;;;;;;;3.90;3.20;;;;;;;13.65;100.00;98478.13;5076740;28;20224;-76
2023/08/10 02:12:54;;;;;;;3.23;2.80;;;;;;;13.61;100.00;98491.09;5077095;28;20219;-76
2023/08/10 02:15:20;;;;;;;3.50;3.20;;;;;;;13.59;100.00;98490.50;5077062;28;20559;-76
2023/08/10 02:17:46;;;;;;;3.97;3.43;;;;;;;13.53;100.00;98478.06;5076517;28;20721;-76
2023/08/10 02:20:13;;;;;;;4.40;3.27;;;;;;;13.48;100.00;98479.78;5077752;28;20231;-76
2023/08/10 02:22:47;;;;;;;3.77;3.33;;;;;;;13.59;100.00;98485.16;5077027;28;20212;-76
2023/08/10 02:25:13;;;;;;;6.20;3.40;;;;;;;13.69;100.00;98484.59;5077206;28;20196;-76
2023/08/10 02:27:41;;;;;;;4.93;3.63;;;;;;;13.67;100.00;98486.69;5076422;28;20303;-76
2023/08/10 02:30:08;;;;;;;4.60;3.57;;;;;;;13.67;100.00;98486.69;5076955;28;20228;-76
2023/08/10 02:32:35;;;;;;;3.37;3.07;;;;;;;13.65;100.00;98480.78;5076749;28;20211;-76
2023/08/10 02:35:04;;;;;;;3.80;3.50;;;;;;;13.51;100.00;98482.81;5077134;28;20296;-76
2023/08/10 02:37:31;;;;;;;3.60;3.30;;;;;;;13.47;100.00;98484.31;5072942;28;20694;-79
2023/08/10 02:39:57;;;;;;;3.60;3.30;;;;;;;13.51;100.00;98482.81;5071403;22;20320;-79
2023/08/10 02:42:23;;;;;;;4.03;3.20;;;;;;;13.57;100.00;98481.91;5058598;28;20203;-79
2023/08/10 02:44:50;;;;;;;3.77;3.47;;;;;;;13.56;100.00;98488.28;5059321;28;20217;-79
2023/08/10 02:47:16;;;;;;;4.20;3.80;;;;;;;13.53;100.00;98491.44;5060532;28;20227;-79
2023/08/10 02:49:43;;;;;;;4.30;3.97;;;;;;;13.48;100.00;98490.47;5061130;28;20228;-79
2023/08/10 02:52:10;;;;;;;4.67;4.20;;;;;;;13.43;100.00;98485.78;5060353;28;20291;-79
2023/08/10 02:54:37;;;;;;;4.97;4.47;;;;;;;13.46;100.00;98489.88;5060417;28;20292;-79
2023/08/10 02:57:03;;;;;;;4.83;4.23;;;;;;;13.52;100.00;98494.31;5061363;28;20303;-79
2023/08/10 02:59:30;;;;;;;5.40;4.90;;;;;;;13.35;100.00;98494.16;5059958;28;20581;-79
2023/08/10 03:01:56;;;;;;;5.50;5.00;;;;;;;13.36;100.00;98490.44;5059148;28;20204;-79
2023/08/10 03:04:23;;;;;;;5.33;4.70;;;;;;;13.41;100.00;98495.91;5057719;28;20208;-76
2023/08/10 03:06:49;;;;;;;5.47;4.13;;;;;;;13.42;100.00;98500.19;5056144;28;20296;-76
2023/08/10 03:09:16;;;;;;;4.67;4.13;;;;;;;13.43;100.00;98504.50;5055592;28;20727;-76
2023/08/10 03:11:42;;;;;;;5.37;4.77;;;;;;;13.39;100.00;98492.63;5055765;28;20205;-76
2023/08/10 03:14:08;;;;;;;4.90;4.40;;;;;;;13.37;100.00;98497.38;5055870;28;20205;-76
2023/08/10 03:16:35;;;;;;;5.23;4.73;;;;;;;13.30;100.00;98493.97;5055576;28;20213;-76
2023/08/10 03:19:01;;;;;;;6.93;5.13;;;;;;;13.30;100.00;98493.97;5055659;28;20229;-76
2023/08/10 03:21:28;;;;;;;5.97;4.93;;;;;;;13.30;100.00;98499.31;5055804;28;20213;-76
2023/08/10 03:23:54;;;;;;;5.70;4.90;;;;;;;13.26;100.00;98492.81;5055667;28;20201;-76
2023/08/10 03:26:21;;;;;;;5.90;5.30;;;;;;;13.30;100.00;98496.66;5055566;28;20211;-76
2023/08/10 03:28:47;;;;;;;5.40;4.90;;;;;;;13.31;100.00;98487.63;5055562;28;20231;-76
2023/08/10 03:31:14;;;;;;;7.03;5.27;;;;;;;13.34;100.00;98487.16;5055431;28;20211;-76
2023/08/10 03:33:41;;;;;;;7.07;5.60;;;;;;;13.30;100.00;98483.28;5055385;28;20209;-76
2023/08/10 03:36:08;;;;;;;5.80;5.27;;;;;;;13.33;100.00;98490.03;5055310;28;20297;-76
2023/08/10 03:38:35;;;;;;;5.97;5.43;;;;;;;13.35;100.00;98488.81;5054961;28;20241;-76
2023/08/10 03:41:01;;;;;;;6.57;5.10;;;;;;;13.35;100.00;98482.63;5055002;28;20185;-76
2023/08/10 03:43:27;;;;;;;7.30;5.73;;;;;;;13.36;100.00;98494.94;5055118;28;20582;-76
2023/08/10 03:45:54;;;;;;;6.53;5.00;;;;;;;13.37;100.00;98493.91;5055236;28;20208;-76
2023/08/10 03:48:20;;;;;;;6.27;5.10;;;;;;;13.37;100.00;98500.06;5055276;28;20212;-76
2023/08/10 03:50:46;;;;;;;5.33;4.83;;;;;;;13.35;100.00;98507.50;5055158;28;20730;-76
2023/08/10 03:53:13;;;;;;;5.50;4.50;;;;;;;13.33;100.00;98509.56;5054172;28;20212;-76
2023/08/10 03:55:39;;;;;;;6.07;5.40;;;;;;;13.29;100.00;98508.38;5055170;28;20205;-76
2023/08/10 03:58:05;;;;;;;5.57;5.00;;;;;;;13.21;100.00;98502.53;5054695;28;20794;-76
2023/08/10 04:00:32;;;;;;;5.70;5.20;;;;;;;13.18;100.00;98495.81;5054821;28;20268;-76
2023/08/10 04:02:58;;;;;;;6.23;4.93;;;;;;;13.18;100.00;98503.81;5054624;28;20201;-76
2023/08/10 04:05:25;;;;;;;5.60;5.10;;;;;;;13.16;100.00;98500.53;5055029;28;20665;-79
2023/08/10 04:07:53;;;;;;;6.40;5.67;;;;;;;13.25;100.00;98496.50;5056013;28;20571;-79
2023/08/10 04:10:20;;;;;;;6.43;5.47;;;;;;;13.22;100.00;98494.31;5055245;28;20271;-79
2023/08/10 04:12:47;;;;;;;6.90;6.20;;;;;;;13.22;100.00;98496.97;5055574;28;20233;-79
2023/08/10 04:15:13;;;;;;;6.60;5.17;;;;;;;13.31;100.00;98500.97;5055400;28;20291;-79
2023/08/10 04:17:39;;;;;;;5.77;5.17;;;;;;;13.37;100.00;98500.06;5055320;28;20223;-79
2023/08/10 04:20:09;;;;;;;5.97;5.40;;;;;;;13.36;100.00;98503.78;5057901;28;20233;-79
2023/08/10 04:22:36;;;;;;;7.17;5.77;;;;;;;13.33;100.00;98498.88;5056688;28;20301;-79
2023/08/10 04:25:03;;;;;;;5.93;5.33;;;;;;;13.35;100.00;98502.16;5056775;28;20259;-79
2023/08/10 04:27:29;;;;;;;5.90;4.90;;;;;;;13.35;100.00;98512.84;5056496;28;20216;-79
2023/08/10 04:29:56;;;;;;;6.17;5.57;;;;;;;13.29;100.00;98515.59;5056093;28;20312;-79
2023/08/10 04:32:22;;;;;;;6.20;5.60;;;;;;;13.28;100.00;98516.59;5057104;28;20213;-79
2023/08/10 04:34:49;;;;;;;9.57;5.40;;;;;;;13.19;100.00;98515.28;5057170;28;20208;-79
2023/08/10 04:37:15;;;;;;;6.50;5.10;;;;;;;13.25;100.00;98520.53;5056848;28;20216;-79
2023/08/10 04:39:43;;;;;;;8.40;5.40;;;;;;;13.30;100.00;98520.69;5056186;28;20684;-79
2023/08/10 04:42:10;;;;;;;5.83;5.10;;;;;;;13.37;100.00;98524.09;5056304;28;20200;-79
2023/08/10 04:44:36;;;;;;;5.87;5.23;;;;;;;13.38;100.00;98516.91;5056059;28;20218;-79
2023/08/10 04:47:02;;;;;;;5.87;5.27;;;;;;;13.46;100.00;98524.59;5053940;28;20197;-79
2023/08/10 04:49:30;;;;;;;5.67;5.07;;;;;;;13.49;100.00;98519.63;5055041;28;20651;-79
2023/08/10 04:51:57;;;;;;;5.80;5.27;;;;;;;13.53;100.00;98522.66;5053490;28;20197;-78
2023/08/10 04:54:24;;;;;;;7.33;5.80;;;;;;;13.57;100.00;98527.31;5056775;28;20232;-79
2023/08/10 04:56:50;;;;;;;10.43;9.53;;;;;;;13.62;100.00;98526.66;5055457;28;20207;-79
2023/08/10 04:59:17;;;;;;;5.77;5.33;;;;;;;13.62;100.00;98534.66;5056269;28;20236;-79
2023/08/10 05:01:43;;;;;;;6.37;5.77;;;;;;;13.62;100.00;98524.78;5057451;28;20217;-79
2023/08/10 05:04:10;;;;;;;6.13;5.63;;;;;;;13.65;100.00;98536.91;5056274;28;20580;-79
2023/08/10 05:06:36;;;;;;;6.07;5.47;;;;;;;13.61;100.00;98533.84;5056548;28;20236;-79
2023/08/10 05:09:04;;;;;;;6.23;5.63;;;;;;;13.66;100.00;98530.50;5056182;28;20221;-79
2023/08/10 05:11:31;;;;;;;6.03;5.50;;;;;;;13.70;100.00;98534.34;5056087;28;20577;-79
2023/08/10 05:13:57;;;;;;;6.60;6.00;;;;;;;13.72;100.00;98534.94;5056038;28;20381;-79
2023/08/10 05:16:23;;;;;;;6.40;5.83;;;;;;;13.73;100.00;98537.38;5056810;28;20300;-79
2023/08/10 05:18:50;;;;;;;8.10;5.47;;;;;;;13.75;100.00;98537.94;5056190;28;20225;-79
2023/08/10 05:21:17;;;;;;;6.47;5.77;;;;;;;13.83;100.00;98532.28;5056676;28;20254;-79
2023/08/10 05:23:44;;;;;;;7.67;5.83;;;;;;;13.91;100.00;98531.97;5053511;28;20211;-76
2023/08/10 05:26:11;;;;;;;7.23;5.43;;;;;;;13.95;100.00;98535.81;5052931;28;20221;-76
2023/08/10 05:28:38;;;;;;;7.00;6.30;;;;;;;14.12;100.00;98530.63;5052917;28;20516;-76
2023/08/10 05:31:04;;;;;;;6.80;6.20;;;;;;;14.06;100.00;98531.56;5053121;28;20231;-76
2023/08/10 05:33:31;;;;;;;6.60;6.03;;;;;;;14.06;100.00;98540.38;5053144;28;20624;-76
2023/08/10 05:35:58;;;;;;;6.97;6.37;;;;;;;14.14;100.00;98534.69;5053017;28;20718;-76
2023/08/10 05:38:26;;;;;;;6.83;6.23;;;;;;;14.15;100.00;98538.19;5052363;28;20570;-76
2023/08/10 05:40:54;;;;;;;7.40;6.70;;;;;;;14.24;100.00;98534.19;5053254;28;20232;-76
2023/08/10 05:43:20;;;;;;;7.10;6.20;;;;;;;14.19;100.00;98544.69;5053021;28;20218;-76
2023/08/10 05:45:47;;;;;;;6.47;5.97;;;;;;;14.26;100.00;98543.59;5053481;28;20204;-76
2023/08/10 05:48:14;;;;;;;6.47;5.97;;;;;;;14.30;100.00;98550.09;5052793;28;20201;-76
2023/08/10 05:50:42;;;;;;;6.83;6.20;;;;;;;14.44;100.00;98554.22;5052738;28;20220;-76
2023/08/10 05:53:08;;;;;;;7.10;5.70;;;;;;;14.64;100.00;98561.88;5052839;28;20209;-76
2023/08/10 05:55:35;;;;;;;6.83;6.23;;;;;;;14.71;100.00;98558.06;5052708;28;20201;-78
2023/08/10 05:58:02;;;;;;;6.30;5.80;;;;;;;14.82;100.00;98565.25;5055518;28;20205;-79
2023/08/10 06:00:29;;;;;;;6.00;5.40;;;;;;;14.89;100.00;98565.97;5055077;28;20221;-79
2023/08/10 06:02:55;;;;;;;5.40;4.90;;;;;;;14.86;100.00;98569.09;5055733;28;20664;-79
2023/08/10 06:05:22;;;;;;;5.60;5.10;;;;;;;14.76;100.00;98560.03;5055278;28;20677;-79
2023/08/10 06:07:48;;;;;;;6.17;5.30;;;;;;;14.81;100.00;98578.88;5053824;28;20201;-78
2023/08/10 06:10:16;;;;;;;5.37;4.93;;;;;;;14.67;100.00;98572.94;5052226;28;20276;-77
2023/08/10 06:12:42;;;;;;;5.50;5.00;;;;;;;14.73;100.00;98572.00;5052495;28;20288;-77
2023/08/10 06:15:10;;;;;;;5.70;5.23;;;;;;;14.73;100.00;98576.53;5052534;28;20664;-77
2023/08/10 06:17:38;;;;;;;6.80;5.17;;;;;;;14.77;100.00;98572.34;5054994;28;20205;-77
2023/08/10 06:20:09;;;;;;;7.37;5.70;;;;;;;14.76;100.00;98576.91;5056029;28;20545;-77
2023/08/10 06:22:39;;;;;;;5.47;4.97;;;;;;;14.73;100.00;98577.38;5056017;28;20200;-75
2023/08/10 06:25:06;;;;;;;5.60;5.10;;;;;;;14.81;100.00;98582.38;5055817;28;20213;-75
2023/08/10 06:27:36;;;;;;;4.80;4.30;;;;;;;14.84;100.00;98586.44;5055392;28;20692;-75
2023/08/10 06:30:04;;;;;;;5.20;4.67;;;;;;;14.89;100.00;98582.03;5054556;28;20221;-74
2023/08/10 06:32:31;;;;;;;5.07;4.67;;;;;;;14.92;100.00;98583.44;5054311;28;20415;-74
2023/08/10 06:34:58;;;;;;;5.40;4.40;;;;;;;14.97;100.00;98584.34;5053966;28;20209;-74
2023/08/10 06:37:24;;;;;;;4.77;4.27;;;;;;;15.02;100.00;98583.66;5054203;28;20209;-74
2023/08/10 06:39:51;;;;;;;4.97;4.43;;;;;;;15.05;100.00;98588.53;5053787;28;20600;-74
2023/08/10 06:42:17;;;;;;;4.93;4.53;;;;;;;15.08;100.00;98590.75;5053998;28;20224;-74
2023/08/10 06:44:44;;;;;;;4.80;4.40;;;;;;;15.11;100.00;98592.97;5055034;28;20264;-74
2023/08/10 06:47:11;;;;;;;5.00;4.47;;;;;;;15.12;100.00;98586.53;5055989;28;20213;-74
2023/08/10 06:49:38;;;;;;;5.90;4.50;;;;;;;15.27;100.00;98590.38;5055739;28;20227;-74
2023/08/10 06:52:05;;;;;;;4.77;4.10;;;;;;;15.20;100.00;98592.34;5055880;28;20205;-75
2023/08/10 06:54:32;;;;;;;4.50;4.20;;;;;;;15.26;100.00;98596.78;5056124;28;20639;-75
2023/08/10 06:56:58;;;;;;;4.57;4.17;;;;;;;15.36;100.00;98598.88;5055667;28;20211;-75
2023/08/10 06:59:25;;;;;;;3.93;3.57;;;;;;;15.40;100.00;98608.91;5055521;28;20235;-75
2023/08/10 07:01:51;;;;;;;4.23;3.80;;;;;;;15.40;100.00;98605.41;5055668;28;20208;-74
2023/08/10 07:04:18;;;;;;;4.20;3.80;;;;;;;15.45;100.00;98610.84;5055674;28;20208;-74
2023/08/10 07:06:46;;;;;;;3.87;3.47;;;;;;;15.55;100.00;98614.56;5055133;28;20205;-74
2023/08/10 07:09:12;;;;;;;4.00;3.70;;;;;;;15.58;100.00;98616.78;5055728;28;20217;-74
2023/08/10 07:11:38;;;;;;;4.83;3.80;;;;;;;15.53;100.00;98616.69;5055597;28;20219;-74
2023/08/10 07:14:05;;;;;;;4.30;3.87;;;;;;;15.64;100.00;98617.69;5055700;28;20259;-74
2023/08/10 07:16:31;;;;;;;3.77;3.47;;;;;;;15.63;100.00;98614.22;5056358;28;20209;-74
2023/08/10 07:18:58;;;;;;;4.50;3.27;;;;;;;15.62;100.00;98609.06;5055774;28;20650;-74
2023/08/10 07:21:24;;;;;;;3.73;3.37;;;;;;;15.65;100.00;98609.41;5055138;28;20561;-75
2023/08/10 07:23:51;;;;;;;4.27;3.50;;;;;;;15.71;100.00;98613.84;5055337;28;20236;-75
2023/08/10 07:26:17;;;;;;;3.77;3.47;;;;;;;15.77;100.00;98607.50;5055032;28;20201;-75
2023/08/10 07:28:44;;;;;;;3.60;3.30;;;;;;;15.86;100.00;98608.75;5054981;28;20221;-74
2023/08/10 07:31:11;;;;;;;5.17;3.53;;;;;;;16.01;100.00;98598.31;5055252;28;20212;-74
2023/08/10 07:33:37;;;;;;;3.20;2.90;;;;;;;15.92;100.00;98610.47;5054957;28;20209;-74
2023/08/10 07:36:04;;;;;;;3.40;3.07;;;;;;;16.07;100.00;98605.44;5055076;28;20255;-75
2023/08/10 07:38:30;;;;;;;3.43;3.17;;;;;;;16.24;100.00;98611.63;5054648;28;20722;-75
2023/08/10 07:40:57;;;;;;;4.37;3.20;;;;;;;16.49;100.00;98614.78;5054809;28;20680;-75
2023/08/10 07:43:23;;;;;;;3.50;3.17;;;;;;;16.42;100.00;98611.44;5054539;28;20705;-74
2023/08/10 07:45:50;;;;;;;3.30;3.07;;;;;;;16.49;100.00;98616.66;5054607;28;20205;-74
2023/08/10 07:48:16;;;;;;;3.23;3.03;;;;;;;16.50;100.00;98621.78;5054838;28;20212;-74
2023/08/10 07:50:42;;;;;;;5.23;3.67;;;;;;;16.63;100.00;98618.78;5054899;28;20201;-74
2023/08/10 07:53:09;;;;;;;3.23;3.03;;;;;;;16.93;100.00;98629.19;5054620;28;20673;-75
2023/08/10 07:55:35;;;;;;;5.37;3.30;;;;;;;16.76;100.00;98628.38;5054307;28;20690;-75
2023/08/10 07:58:01;;;;;;;4.30;3.10;;;;;;;16.94;100.00;98634.31;5054303;28;20552;-75
2023/08/10 08:00:28;;;;;;;3.50;3.20;;;;;;;16.94;100.00;98628.94;5054706;28;20303;-74
2023/08/10 08:02:54;;;;;;;3.33;3.03;;;;;;;17.05;100.00;98629.91;5054550;28;20311;-73
2023/08/10 08:05:21;;;;;;;3.67;3.10;;;;;;;17.17;100.00;98628.75;5054424;28;20236;-74
2023/08/10 08:07:47;;;;;;;5.50;3.60;;;;;;;17.21;100.00;98619.13;5053982;28;20205;-75
2023/08/10 08:10:14;;;;;;;4.93;3.80;;;;;;;17.09;100.00;98629.16;5053918;28;20599;-74
2023/08/10 08:12:40;;;;;;;3.77;3.33;;;;;;;17.29;100.00;98624.06;5054468;28;20548;-75
2023/08/10 08:15:07;;;;;;;4.57;3.53;;;;;;;17.13;100.00;98627.63;5054228;28;20676;-75
2023/08/10 08:18:12;;;;;;;3.60;3.30;;;;;;;17.17;100.00;98631.44;5054317;28;20336;-75
2023/08/10 08:20:39;;;;;;;3.83;3.43;;;;;;;17.27;100.00;98623.50;5053613;28;20225;-75
2023/08/10 08:23:05;;;;;;;3.73;3.10;;;;;;;17.43;100.00;98624.56;5054146;28;20205;-75
2023/08/10 08:25:31;;;;;;;3.23;2.93;;;;;;;17.62;100.00;98629.41;5054363;28;20211;-75
2023/08/10 08:27:58;;;;;;;4.27;3.33;;;;;;;17.44;100.00;98632.38;5053813;28;20211;-75
2023/08/10 08:30:26;;;;;;;3.70;3.40;;;;;;;17.56;100.00;98622.31;5054318;28;20233;-75
2023/08/10 08:32:52;;;;;;;4.37;3.63;;;;;;;17.61;100.00;98629.66;5054095;28;20213;-75
2023/08/10 08:35:19;;;;;;;3.53;3.27;;;;;;;17.72;100.00;98629.53;5054022;28;20225;-75
2023/08/10 08:37:46;;;;;;;3.87;3.57;;;;;;;17.80;100.00;98622.88;5054051;28;20565;-75
2023/08/10 08:40:12;;;;;;;3.50;3.20;;;;;;;17.88;100.00;98625.97;5052949;28;20233;-75
2023/08/10 08:42:40;;;;;;;5.80;3.93;;;;;;;17.86;100.00;98620.00;5053710;28;20201;-74
2023/08/10 08:45:08;;;;;;;3.57;3.27;;;;;;;18.05;100.00;98623.97;5036242;28;20205;-73
2023/08/10 08:47:35;;;;;;;3.77;3.33;;;;;;;18.00;100.00;98615.84;5053496;28;20239;-73
2023/08/10 08:50:02;;;;;;;4.67;3.37;;;;;;;18.07;100.00;98618.34;5053454;28;20228;-73
2023/08/10 08:52:29;;;;;;;3.60;3.30;;;;;;;18.05;100.00;98615.13;5053784;28;20205;-75
2023/08/10 08:54:58;;;;;;;3.83;3.40;;;;;;;18.09;100.00;98619.72;5053361;28;20205;-73
2023/08/10 08:57:25;;;;;;;4.20;3.80;;;;;;;18.21;100.00;98611.50;5053371;28;20232;-73
2023/08/10 08:59:51;;;;;;;3.50;3.20;;;;;;;18.28;100.00;98612.91;5053156;28;20305;-73
2023/08/10 09:02:17;;;;;;;4.13;3.50;;;;;;;18.28;100.00;98610.22;5053427;28;20209;-73
2023/08/10 09:04:44;;;;;;;7.57;3.93;;;;;;;18.29;100.00;98611.88;5053719;28;20236;-73
2023/08/10 09:07:12;;;;;;;3.93;3.30;;;;;;;18.52;100.00;98618.84;5053494;28;20205;-73
2023/08/10 09:09:40;;;;;;;4.43;3.70;;;;;;;18.50;100.00;98620.97;5053235;28;20217;-73
2023/08/10 09:12:28;;;;;;;5.07;3.97;;;;;;;18.65;100.00;98611.16;5053062;28;20549;-73
2023/08/10 09:15:06;;;;;;;4.63;3.60;;;;;;;18.99;100.00;98598.19;5053323;28;20231;-73
2023/08/10 09:17:34;;;;;;;4.87;3.47;;;;;;;19.13;100.00;98604.75;5053229;28;20217;-73
2023/08/10 09:20:02;;;;;;;4.20;3.80;;;;;;;19.04;100.00;98601.72;5052942;28;20236;-73
2023/08/10 09:22:32;;;;;;;4.37;3.70;;;;;;;19.15;100.00;98594.53;5053594;28;20211;-73
2023/08/10 09:24:59;;;;;;;3.60;3.30;;;;;;;19.26;100.00;98594.34;5052867;28;20284;-73
2023/08/10 09:27:30;;;;;;;4.00;3.70;;;;;;;19.51;100.00;98591.78;5052858;28;20247;-73
2023/08/10 09:30:01;;;;;;;4.73;3.47;;;;;;;19.55;100.00;98589.38;5052902;28;20223;-73
2023/08/10 09:32:28;;;;;;;4.50;3.80;;;;;;;19.56;100.00;98593.69;5052875;28;20196;-73
2023/08/10 09:34:54;;;;;;;3.40;3.13;;;;;;;19.40;100.00;98579.31;5053690;28;20212;-73
2023/08/10 09:37:23;;;;;;;3.40;3.10;;;;;;;19.69;100.00;98582.44;5052506;28;20216;-73
2023/08/10 09:39:55;;;;;;;4.10;3.63;;;;;;;19.86;100.00;98585.72;5052495;28;20255;-73
2023/08/10 09:42:22;;;;;;;4.33;3.60;;;;;;;19.93;100.00;98580.88;5052982;28;20232;-74
2023/08/10 09:44:50;;;;;;;3.13;2.80;;;;;;;20.04;100.00;98587.13;5052974;28;20201;-74
2023/08/10 09:47:18;;;;;;;3.03;2.80;;;;;;;20.03;100.00;98580.09;5053075;28;20213;-73
2023/08/10 09:49:57;;;;;;;3.97;2.77;;;;;;;20.06;100.00;98582.25;5053004;28;20221;-73
2023/08/10 09:52:25;;;;;;;3.80;3.30;;;;;;;19.87;100.00;98579.25;5055440;28;20190;-73
2023/08/10 09:54:54;;;;;;;3.07;2.77;;;;;;;20.13;100.00;98585.56;5057156;28;20205;-73
2023/08/10 09:57:21;;;;;;;3.33;2.93;;;;;;;20.46;100.00;98582.34;5057037;28;20209;-73
2023/08/10 09:59:49;;;;;;;3.30;3.00;;;;;;;20.40;100.00;98581.56;5056762;28;20233;-73
2023/08/10 10:02:18;;;;;;;3.40;2.73;;;;;;;20.64;100.00;98568.28;5056936;28;20209;-73
2023/08/10 10:04:45;;;;;;;4.13;3.73;;;;;;;20.25;100.00;98578.03;5056970;28;20221;-73
2023/08/10 10:07:13;;;;;;;4.13;3.10;;;;;;;20.43;100.00;98572.88;5056640;28;20209;-73
2023/08/10 10:09:43;;;;;;;4.43;3.50;;;;;;;20.54;100.00;98561.03;5056615;28;20221;-73
2023/08/10 10:12:15;;;;;;;4.83;3.70;;;;;;;20.50;100.00;98567.22;5056641;28;20220;-73
2023/08/10 10:14:47;;;;;;;3.67;3.17;;;;;;;20.21;100.00;98569.63;5056612;28;20205;-73
2023/08/10 10:17:18;;;;;;;3.50;3.07;;;;;;;20.27;100.00;98565.06;5056562;28;20201;-73
2023/08/10 10:19:46;;;;;;;5.37;3.00;;;;;;;20.78;100.00;98558.56;5056027;28;20241;-73
2023/08/10 10:22:14;;;;;;;3.70;3.40;;;;;;;21.09;100.00;98549.34;5056297;28;20209;-74
2023/08/10 10:24:42;;;;;;;3.53;2.97;;;;;;;20.85;100.00;98556.41;5056436;28;20211;-73
2023/08/10 10:27:11;;;;;;;5.80;2.93;;;;;;;20.90;100.00;98540.19;5056356;28;20209;-73
2023/08/10 10:29:40;;;;;;;3.73;3.00;;;;;;;21.19;100.00;98544.72;5056633;28;20282;-73
2023/08/10 10:32:13;;;;;;;5.00;3.13;;;;;;;21.23;100.00;98540.41;5056079;28;20668;-73
2023/08/10 10:34:41;;;;;;;4.17;3.30;;;;;;;21.04;98.64;98547.50;5055877;28;20215;-73
2023/08/10 10:37:14;;;;;;;3.10;2.80;;;;;;;21.43;98.04;98536.81;5056472;28;20278;-74
2023/08/10 10:39:42;;;;;;;3.50;3.13;;;;;;;21.49;96.38;98544.63;5056031;28;20233;-74
2023/08/10 10:42:11;;;;;;;2.92;2.72;;;;;;;21.67;95.32;98540.50;5056060;28;20296;-73
2023/08/10 10:45:07;;;;;;;3.72;3.42;;;;;;;21.20;91.88;98540.94;5056225;28;20215;-73
2023/08/10 10:47:38;;;;;;;4.90;2.60;;;;;;;21.02;99.22;98527.22;5056615;28;20229;-73
2023/08/10 10:50:16;;;;;;;3.47;2.63;;;;;;;21.28;94.03;98523.34;5055982;28;20217;-73
2023/08/10 10:52:53;;;;;;;3.17;2.55;;;;;;;21.12;98.00;98522.56;5055992;28;20571;-73
2023/08/10 10:55:20;;;;;;;2.90;2.70;;;;;;;21.39;93.88;98512.19;5056140;28;20211;-73
2023/08/10 10:57:48;;;;;;;3.38;2.33;;;;;;;21.55;92.48;98510.22;5056130;28;20209;-73
2023/08/10 11:00:15;;;;;;;2.70;2.08;;;;;;;21.82;94.74;98505.25;5055834;28;20226;-74
2023/08/10 11:02:41;;;;;;;4.97;2.60;;;;;;;21.94;89.30;98508.44;5055473;28;20214;-74
2023/08/10 11:05:12;;;;;;;4.55;2.65;;;;;;;22.12;87.57;98505.06;5055623;28;20676;-75
2023/08/10 11:07:46;;;;;;;2.80;2.60;;;;;;;22.28;85.67;98504.66;5055744;28;20204;-73
2023/08/10 11:10:13;;;;;;;3.00;2.40;;;;;;;22.41;87.87;98503.19;5055864;28;20253;-73
2023/08/10 11:12:41;;;;;;;2.55;2.28;;;;;;;22.43;86.82;98501.03;5055747;28;20201;-73
2023/08/10 11:15:10;;;;;;;2.63;2.42;;;;;;;22.14;84.61;98500.16;5055436;28;20583;-73
2023/08/10 11:17:47;;;;;;;2.63;2.17;;;;;;;22.64;86.71;98495.16;5055818;28;20208;-73
2023/08/10 11:20:15;;;;;;;4.00;2.80;;;;;;;22.80;87.98;98496.59;5055307;28;20598;-73
2023/08/10 11:22:46;;;;;;;2.72;2.40;;;;;;;22.58;83.89;98496.31;5055403;28;20679;-73
2023/08/10 11:25:15;;;;;;;4.10;2.22;;;;;;;22.59;83.88;98502.50;5055527;28;20227;-74
2023/08/10 11:27:44;;;;;;;2.80;2.25;;;;;;;22.82;81.94;98499.03;5055352;28;20213;-74
2023/08/10 11:30:13;;;;;;;3.70;2.47;;;;;;;22.58;78.97;98495.47;5055639;28;20225;-73